createdAt,value
2022-08-05T00:02:20.616Z,18.20
2022-08-05T00:04:46.984Z,4.43
2022-08-05T00:07:59.111Z,10.65
2022-08-05T00:10:08.527Z,10.68
2022-08-05T00:12:35.589Z,12.02
2022-08-05T00:15:55.350Z,6.55
2022-08-05T00:18:08.224Z,9.00
2022-08-05T00:20:34.527Z,8.52
2022-08-05T00:23:02.706Z,13.35
2022-08-05T00:25:45.324Z,10.07
2022-08-05T00:28:12.705Z,7.63
2022-08-05T00:30:39.085Z,14.35
2022-08-05T00:33:15.439Z,6.72
2022-08-05T00:36:15.957Z,3.97
2022-08-05T00:38:41.283Z,3.38
2022-08-05T00:41:11.775Z,3.25
2022-08-05T00:43:46.608Z,6.47
2022-08-05T00:46:13.714Z,7.75
2022-08-05T00:48:51.322Z,6.57
2022-08-05T00:51:51.140Z,7.55
2022-08-05T00:54:05.157Z,8.73
2022-08-05T00:56:31.462Z,7.40
2022-08-05T00:58:57.760Z,6.88
2022-08-05T01:01:42.526Z,6.35
2022-08-05T01:04:14.225Z,5.95
2022-08-05T01:06:46.701Z,8.43
2022-08-05T01:09:15.323Z,7.07
2022-08-05T01:11:44.286Z,7.45
2022-08-05T01:14:10.578Z,6.53
2022-08-05T01:16:49.457Z,5.03
2022-08-05T01:19:22.301Z,9.73
2022-08-05T01:22:28.041Z,6.55
2022-08-05T01:25:13.625Z,11.40
2022-08-05T01:27:50.741Z,8.48
2022-08-05T01:30:34.616Z,9.90
2022-08-05T01:33:03.080Z,7.63
2022-08-05T01:35:50.780Z,15.75
2022-08-05T01:38:27.167Z,7.75
2022-08-05T01:40:57.518Z,7.70
2022-08-05T01:43:24.336Z,8.65
2022-08-05T01:45:56.185Z,15.20
2022-08-05T01:48:23.694Z,21.80
2022-08-05T01:50:51.518Z,11.95
2022-08-05T01:53:54.588Z,14.20
2022-08-05T01:58:44.807Z,9.32
2022-08-05T02:01:13.162Z,10.13
2022-08-05T02:03:42.327Z,14.65
2022-08-05T02:06:33.881Z,16.33
2022-08-05T02:08:58.781Z,12.70
2022-08-05T02:11:33.614Z,5.75
2022-08-05T02:14:12.541Z,8.05
2022-08-05T02:16:46.356Z,13.53
2022-08-05T02:19:24.944Z,9.65
2022-08-05T02:22:25.685Z,6.47
2022-08-05T02:24:53.928Z,6.43
2022-08-05T02:27:21.813Z,7.72
2022-08-05T02:29:59.839Z,5.93
2022-08-05T02:32:31.029Z,14.40
2022-08-05T02:35:09.577Z,9.75
2022-08-05T02:37:40.794Z,6.55
2022-08-05T02:40:09.515Z,10.65
2022-08-05T02:42:37.060Z,10.75
2022-08-05T02:45:04.234Z,18.95
2022-08-05T02:48:06.958Z,13.02
2022-08-05T02:50:18.694Z,10.68
2022-08-05T02:52:45.651Z,14.07
2022-08-05T02:55:12.555Z,15.23
2022-08-05T02:58:09.833Z,13.40
2022-08-05T03:00:26.971Z,16.30
2022-08-05T03:02:53.625Z,11.52
2022-08-05T03:05:21.929Z,13.05
2022-08-05T03:08:08.831Z,11.63
2022-08-05T03:10:35.934Z,9.97
2022-08-05T03:15:27.870Z,13.32
2022-08-05T03:17:55.967Z,10.85
2022-08-05T03:20:24.523Z,11.43
2022-08-05T03:22:51.369Z,12.95
2022-08-05T03:25:33.241Z,11.40
2022-08-05T03:28:07.022Z,10.07
2022-08-05T03:30:34.934Z,7.72
2022-08-05T03:33:01.811Z,5.38
2022-08-05T03:35:28.737Z,7.90
2022-08-05T03:37:58.701Z,5.25
2022-08-05T03:40:31.813Z,5.68
2022-08-05T03:42:58.833Z,8.93
2022-08-05T03:45:25.158Z,8.65
2022-08-05T03:47:51.802Z,5.82
2022-08-05T03:50:23.401Z,6.28
2022-08-05T03:56:10.348Z,7.70
2022-08-05T03:58:41.082Z,9.63
2022-08-05T04:01:11.448Z,5.80
2022-08-05T04:03:40.220Z,5.45
2022-08-05T04:06:27.043Z,5.18
2022-08-05T04:08:54.465Z,5.72
2022-08-05T04:11:21.047Z,12.88
2022-08-05T04:13:53.398Z,9.25
2022-08-05T04:16:25.085Z,6.57
2022-08-05T04:18:58.603Z,6.00
2022-08-05T04:22:05.764Z,8.60
2022-08-05T04:24:18.672Z,6.88
2022-08-05T04:26:46.435Z,6.57
2022-08-05T04:29:13.016Z,7.20
2022-08-05T04:31:40.627Z,7.13
2022-08-05T04:34:19.697Z,8.43
2022-08-05T04:36:54.012Z,4.22
2022-08-05T04:39:20.876Z,5.13
2022-08-05T04:41:48.517Z,7.75
2022-08-05T04:44:21.362Z,6.93
2022-08-05T04:46:56.021Z,5.38
2022-08-05T04:49:24.765Z,5.88
2022-08-05T04:52:04.737Z,8.07
2022-08-05T04:54:34.018Z,7.10
2022-08-05T04:57:00.302Z,7.70
2022-08-05T04:59:36.664Z,7.03
2022-08-05T05:02:41.429Z,6.07
2022-08-05T05:04:53.277Z,6.03
2022-08-05T05:07:29.714Z,7.32
2022-08-05T05:09:59.230Z,9.32
2022-08-05T05:12:29.163Z,6.63
2022-08-05T05:14:55.456Z,9.85
2022-08-05T05:17:24.692Z,9.98
2022-08-05T05:20:08.708Z,8.50
2022-08-05T05:22:35.146Z,6.72
2022-08-05T05:25:17.151Z,5.75
2022-08-05T05:27:48.664Z,7.32
2022-08-05T05:30:31.427Z,8.98
2022-08-05T05:33:03.765Z,6.95
2022-08-05T05:35:42.777Z,7.57
2022-08-05T05:38:13.505Z,9.38
2022-08-05T05:40:43.803Z,7.03
2022-08-05T05:43:14.807Z,6.32
2022-08-05T05:45:48.573Z,7.68
2022-08-05T05:48:16.065Z,7.78
2022-08-05T05:50:44.309Z,8.13
2022-08-05T05:53:21.318Z,6.50
2022-08-05T05:55:52.413Z,6.07
2022-08-05T05:58:32.002Z,5.78
2022-08-05T06:01:04.870Z,10.65
2022-08-05T06:04:01.256Z,5.07
2022-08-05T06:06:28.091Z,6.20
2022-08-05T06:08:57.679Z,6.28
2022-08-05T06:11:23.998Z,9.07
2022-08-05T06:13:54.001Z,4.22
2022-08-05T06:16:30.123Z,5.18
2022-08-05T06:19:02.005Z,5.80
2022-08-05T06:21:37.054Z,5.50
2022-08-05T06:24:05.898Z,7.20
2022-08-05T06:26:33.915Z,8.65
2022-08-05T06:29:03.710Z,11.43
2022-08-05T06:31:33.584Z,6.90
2022-08-05T06:34:06.743Z,14.13
2022-08-05T06:36:55.286Z,8.88
2022-08-05T06:39:21.797Z,5.70
2022-08-05T06:41:49.335Z,6.90
2022-08-05T06:44:15.840Z,9.00
2022-08-05T06:46:44.105Z,7.55
2022-08-05T06:49:10.390Z,11.30
2022-08-05T06:51:40.793Z,7.45
2022-08-05T06:54:07.353Z,6.97
2022-08-05T06:56:35.234Z,11.95
2022-08-05T06:59:02.390Z,4.75
2022-08-05T07:01:32.390Z,6.97
2022-08-05T07:03:59.520Z,5.07
2022-08-05T07:06:27.621Z,5.65
2022-08-05T07:08:55.112Z,6.38
2022-08-05T07:11:22.553Z,3.63
2022-08-05T07:14:20.760Z,5.78
2022-08-05T07:18:08.338Z,4.40
2022-08-05T07:20:22.985Z,2.25
2022-08-05T07:22:33.426Z,4.60
2022-08-05T07:25:53.770Z,5.07
2022-08-05T07:27:56.461Z,6.32
2022-08-05T07:30:31.746Z,3.63
2022-08-05T07:32:59.551Z,3.65
2022-08-05T07:35:56.711Z,6.53
2022-08-05T07:38:26.241Z,4.88
2022-08-05T07:41:00.306Z,5.10
2022-08-05T07:43:31.060Z,5.80
2022-08-05T07:45:58.494Z,8.95
2022-08-05T07:49:01.471Z,6.03
2022-08-05T07:51:23.492Z,7.00
2022-08-05T07:53:58.406Z,17.33
2022-08-05T07:56:38.981Z,6.78
2022-08-05T07:59:14.460Z,6.00
2022-08-05T08:01:41.553Z,5.30
2022-08-05T08:04:24.392Z,6.88
2022-08-05T08:07:05.512Z,7.90
2022-08-05T08:09:33.604Z,4.22
2022-08-05T08:12:05.610Z,6.03
2022-08-05T08:14:37.777Z,4.95
2022-08-05T08:17:10.660Z,5.70
2022-08-05T08:20:21.496Z,5.35
2022-08-05T08:22:29.099Z,5.45
2022-08-05T08:24:55.556Z,10.65
2022-08-05T08:27:40.174Z,5.45
2022-08-05T08:30:20.295Z,5.88
2022-08-05T08:32:58.106Z,6.07
2022-08-05T08:35:29.258Z,6.55
2022-08-05T08:38:01.646Z,5.40
2022-08-05T08:40:28.063Z,5.63
2022-08-05T08:42:54.725Z,5.68
2022-08-05T08:45:27.112Z,7.57
2022-08-05T08:48:10.655Z,5.85
2022-08-05T08:51:03.284Z,7.05
2022-08-05T08:53:35.378Z,4.35
2022-08-05T08:56:05.807Z,8.00
2022-08-05T08:58:43.058Z,5.22
2022-08-05T09:01:17.114Z,5.90
2022-08-05T09:03:46.195Z,4.70
2022-08-05T09:08:45.141Z,5.57
2022-08-05T09:11:13.906Z,6.55
2022-08-05T09:14:01.199Z,3.88
2022-08-05T09:16:27.651Z,6.25
2022-08-05T09:18:55.387Z,5.53
2022-08-05T09:22:31.220Z,5.70
2022-08-05T09:24:10.164Z,5.05
2022-08-05T09:26:36.848Z,4.72
2022-08-05T09:29:05.760Z,4.97
2022-08-05T09:32:39.410Z,5.85
2022-08-05T09:34:22.410Z,5.80
2022-08-05T09:36:55.630Z,5.70
2022-08-05T09:39:41.897Z,10.02
2022-08-05T09:42:11.388Z,6.53
2022-08-05T09:44:50.801Z,6.80
2022-08-05T09:47:20.601Z,9.00
2022-08-05T09:52:29.559Z,4.15
2022-08-05T09:55:58.453Z,4.28
2022-08-05T09:57:54.389Z,10.52
2022-08-05T10:00:24.687Z,4.63
2022-08-05T10:02:54.503Z,8.63
2022-08-05T10:05:22.605Z,6.03
2022-08-05T10:08:36.481Z,4.00
2022-08-05T10:10:53.964Z,5.78
2022-08-05T10:13:45.535Z,6.10
2022-08-05T10:16:33.930Z,3.78
2022-08-05T10:19:01.184Z,7.28
2022-08-05T10:21:35.341Z,4.47
2022-08-05T10:24:10.949Z,5.28
2022-08-05T10:26:37.806Z,4.40
2022-08-05T10:29:23.646Z,4.95
2022-08-05T10:32:54.653Z,5.53
2022-08-05T10:34:51.523Z,3.67
2022-08-05T10:37:18.084Z,3.75
2022-08-05T10:40:03.639Z,4.18
2022-08-05T10:42:36.551Z,3.15
2022-08-05T10:45:20.932Z,3.13
2022-08-05T10:48:04.898Z,3.67
2022-08-05T10:50:57.040Z,5.55
2022-08-05T10:53:33.178Z,7.65
2022-08-05T10:56:25.803Z,2.95
2022-08-05T10:58:55.671Z,2.63
2022-08-05T11:01:55.145Z,5.53
2022-08-05T11:04:17.413Z,3.65
2022-08-05T11:07:06.467Z,5.70
2022-08-05T11:09:46.938Z,7.03
2022-08-05T11:12:32.155Z,4.60
2022-08-05T11:15:19.055Z,4.63
2022-08-05T11:17:57.778Z,5.45
2022-08-05T11:20:37.510Z,5.10
2022-08-05T11:23:25.333Z,3.40
2022-08-05T11:26:10.064Z,3.70
2022-08-05T11:28:36.909Z,3.08
2022-08-05T11:31:06.546Z,4.88
2022-08-05T11:33:48.387Z,3.30
2022-08-05T11:36:33.932Z,3.50
2022-08-05T11:39:00.618Z,4.72
2022-08-05T11:41:54.641Z,3.10
2022-08-05T11:44:21.507Z,4.50
2022-08-05T11:47:12.072Z,5.55
2022-08-05T11:49:43.275Z,0.95
2022-08-05T11:52:22.981Z,3.72
2022-08-05T11:54:56.602Z,2.35
2022-08-05T11:57:27.899Z,2.83
2022-08-05T11:59:57.370Z,3.13
2022-08-05T12:02:30.637Z,2.60
2022-08-05T12:05:00.157Z,2.25
2022-08-05T12:08:07.422Z,8.68
2022-08-05T12:10:14.005Z,3.22
2022-08-05T12:12:59.142Z,4.03
2022-08-05T12:15:38.185Z,4.43
2022-08-05T12:18:10.766Z,12.15
2022-08-05T12:20:38.702Z,8.05
2022-08-05T12:23:09.646Z,7.93
2022-08-05T12:25:56.923Z,18.42
2022-08-05T12:28:30.907Z,15.40
2022-08-05T12:30:57.692Z,13.48
2022-08-05T12:33:36.598Z,16.50
2022-08-05T12:36:04.250Z,12.60
2022-08-05T12:38:36.139Z,15.30
2022-08-05T12:41:03.167Z,13.40
2022-08-05T12:43:32.257Z,8.13
2022-08-05T12:45:58.724Z,9.20
2022-08-05T12:48:27.583Z,11.80
2022-08-05T12:51:08.999Z,8.18
2022-08-05T12:53:58.898Z,8.73
2022-08-05T12:56:35.419Z,9.85
2022-08-05T12:59:14.171Z,6.43
2022-08-05T13:02:07.855Z,7.72
2022-08-05T13:04:41.870Z,7.95
2022-08-05T13:07:56.113Z,6.85
2022-08-05T13:10:11.798Z,5.20
2022-08-05T13:12:42.481Z,11.23
2022-08-05T13:15:24.461Z,7.15
2022-08-05T13:18:02.010Z,11.60
2022-08-05T13:20:35.263Z,6.78
2022-08-05T13:23:07.673Z,7.97
2022-08-05T13:25:52.487Z,9.15
2022-08-05T13:28:21.842Z,6.43
2022-08-05T13:30:48.736Z,8.23
2022-08-05T13:34:21.910Z,4.50
2022-08-05T13:36:05.237Z,2.47
2022-08-05T13:38:36.039Z,2.45
2022-08-05T13:41:04.793Z,4.05
2022-08-05T13:43:44.434Z,6.13
2022-08-05T13:46:12.843Z,2.75
2022-08-05T13:48:57.792Z,2.75
2022-08-05T13:51:30.086Z,9.93
2022-08-05T13:54:12.406Z,3.45
2022-08-05T13:56:39.999Z,2.25
2022-08-05T13:59:19.958Z,5.25
2022-08-05T14:01:58.313Z,4.20
2022-08-05T14:04:50.424Z,3.78
2022-08-05T14:07:26.160Z,4.93
2022-08-05T14:10:28.074Z,5.43
2022-08-05T14:12:55.407Z,2.50
2022-08-05T14:16:05.955Z,6.88
2022-08-05T14:18:15.117Z,3.03
2022-08-05T14:20:47.198Z,6.72
2022-08-05T14:25:45.172Z,2.90
2022-08-05T14:28:15.966Z,1.88
2022-08-05T14:30:53.637Z,4.43
2022-08-05T14:33:23.050Z,5.78
2022-08-05T14:38:32.911Z,3.55
2022-08-05T14:41:01.892Z,1.83
2022-08-05T14:43:59.391Z,2.53
2022-08-05T14:46:19.115Z,2.17
2022-08-05T14:48:49.960Z,1.58
2022-08-05T14:51:16.569Z,3.20
2022-08-05T14:53:44.858Z,4.13
2022-08-05T14:56:11.542Z,1.15
2022-08-05T14:58:38.031Z,1.55
2022-08-05T15:01:16.152Z,3.35
2022-08-05T15:03:43.801Z,0.98
2022-08-05T15:06:14.803Z,3.83
2022-08-05T15:09:01.576Z,2.60
2022-08-05T15:11:50.948Z,4.75
2022-08-05T15:14:33.605Z,2.55
2022-08-05T15:17:01.646Z,4.10
2022-08-05T15:19:30.242Z,3.50
2022-08-05T15:21:58.005Z,3.13
2022-08-05T15:24:26.793Z,2.88
2022-08-05T15:26:53.093Z,2.80
2022-08-05T15:29:22.198Z,1.20
2022-08-05T15:31:52.949Z,2.78
2022-08-05T15:34:33.249Z,3.63
2022-08-05T15:37:06.096Z,1.23
2022-08-05T15:40:59.222Z,1.98
2022-08-05T15:42:49.890Z,3.22
2022-08-05T15:45:06.387Z,3.50
2022-08-05T15:47:32.754Z,1.48
2022-08-05T15:50:02.376Z,3.53
2022-08-05T15:52:53.676Z,2.08
2022-08-05T15:55:17.535Z,3.28
2022-08-05T15:57:45.893Z,2.50
2022-08-05T16:00:30.564Z,0.90
2022-08-05T16:03:04.672Z,1.13
2022-08-05T16:05:31.672Z,3.35
2022-08-05T16:07:57.969Z,1.20
2022-08-05T16:10:25.246Z,1.50
2022-08-05T16:12:51.976Z,3.28
2022-08-05T16:15:20.049Z,1.17
2022-08-05T16:17:57.493Z,2.83
2022-08-05T16:20:24.740Z,3.08
2022-08-05T16:22:51.034Z,4.10
2022-08-05T16:25:17.350Z,2.42
2022-08-05T16:28:00.690Z,2.72
2022-08-05T16:30:31.874Z,2.92
2022-08-05T16:32:58.896Z,3.63
2022-08-05T16:35:28.370Z,1.83
2022-08-05T16:38:15.643Z,3.90
2022-08-05T16:40:52.316Z,0.95
2022-08-05T16:43:25.070Z,1.25
2022-08-05T16:46:07.098Z,1.60
2022-08-05T16:48:38.803Z,0.77
2022-08-05T16:51:09.023Z,1.63
2022-08-05T16:54:04.049Z,1.70
2022-08-05T16:56:23.560Z,2.55
2022-08-05T16:58:49.985Z,1.65
2022-08-05T17:01:16.649Z,3.05
2022-08-05T17:03:45.354Z,2.03
2022-08-05T17:06:11.653Z,0.68
2022-08-05T17:08:53.611Z,0.80
2022-08-05T17:11:20.849Z,1.17
2022-08-05T17:14:05.828Z,1.33
2022-08-05T17:16:35.992Z,0.77
2022-08-05T17:19:03.574Z,2.72
2022-08-05T17:21:36.157Z,3.65
2022-08-05T17:24:08.069Z,4.78
2022-08-05T17:26:46.903Z,2.35
2022-08-05T17:29:14.197Z,2.10
2022-08-05T17:31:56.645Z,1.25
2022-08-05T17:34:29.765Z,0.80
2022-08-05T17:36:59.355Z,1.13
2022-08-05T17:39:33.385Z,6.13
2022-08-05T17:42:18.236Z,1.55
2022-08-05T17:44:50.507Z,3.15
2022-08-05T17:47:21.761Z,1.50
2022-08-05T17:49:59.922Z,3.88
2022-08-05T17:52:31.204Z,2.00
2022-08-05T17:55:07.998Z,1.10
2022-08-05T17:57:34.470Z,1.27
2022-08-05T18:00:05.806Z,1.83
2022-08-05T18:02:32.973Z,3.33
2022-08-05T18:05:02.791Z,1.52
2022-08-05T18:07:41.737Z,1.27
2022-08-05T18:10:10.403Z,2.47
2022-08-05T18:12:37.168Z,2.45
2022-08-05T18:15:04.003Z,3.03
2022-08-05T18:17:59.134Z,1.45
2022-08-05T18:20:19.074Z,4.07
2022-08-05T18:22:53.905Z,4.30
2022-08-05T18:25:21.214Z,1.80
2022-08-05T18:27:52.547Z,2.78
2022-08-05T18:30:19.200Z,2.60
2022-08-05T18:32:53.487Z,3.90
2022-08-05T18:35:49.645Z,1.65
2022-08-05T18:38:12.727Z,2.60
2022-08-05T18:41:56.289Z,2.30
2022-08-05T18:43:31.570Z,3.50
2022-08-05T18:46:04.625Z,1.15
2022-08-05T18:48:33.303Z,3.25
2022-08-05T18:52:02.776Z,2.00
2022-08-05T18:54:05.472Z,2.72
2022-08-05T18:56:31.812Z,2.20
2022-08-05T18:59:01.083Z,4.25
2022-08-05T19:01:33.178Z,7.95
2022-08-05T19:03:59.920Z,6.85
2022-08-05T19:06:37.110Z,2.97
2022-08-05T19:09:04.079Z,1.67
2022-08-05T19:11:37.224Z,2.75
2022-08-05T19:14:53.378Z,2.85
2022-08-05T19:17:03.193Z,1.83
2022-08-05T19:21:59.052Z,3.10
2022-08-05T19:24:34.720Z,3.08
2022-08-05T19:27:03.981Z,0.90
2022-08-05T19:29:36.080Z,4.57
2022-08-05T19:32:03.514Z,2.95
2022-08-05T19:34:30.959Z,2.33
2022-08-05T19:36:57.793Z,4.40
2022-08-05T19:39:24.132Z,2.25
2022-08-05T19:42:05.984Z,1.40
2022-08-05T19:47:11.247Z,3.13
2022-08-05T19:49:41.697Z,1.95
2022-08-05T19:52:30.744Z,4.40
2022-08-05T19:54:54.730Z,8.82
2022-08-05T19:57:47.603Z,3.22
2022-08-05T20:00:07.902Z,3.40
2022-08-05T20:02:35.891Z,5.95
2022-08-05T20:05:02.478Z,2.95
2022-08-05T20:07:38.981Z,3.00
2022-08-05T20:10:15.127Z,3.72
2022-08-05T20:12:46.172Z,3.30
2022-08-05T20:15:15.909Z,4.10
2022-08-05T20:18:10.491Z,5.40
2022-08-05T20:20:51.520Z,4.75
2022-08-05T20:23:21.882Z,1.65
2022-08-05T20:25:48.196Z,3.40
2022-08-05T20:28:15.518Z,4.57
2022-08-05T20:30:41.988Z,5.53
2022-08-05T20:33:08.701Z,4.47
2022-08-05T20:35:40.450Z,4.35
2022-08-05T20:38:11.801Z,3.28
2022-08-05T20:40:47.556Z,2.58
2022-08-05T20:43:17.046Z,1.95
2022-08-05T20:46:00.304Z,4.78
2022-08-05T20:48:27.124Z,2.63
2022-08-05T20:50:53.448Z,3.10
2022-08-05T20:53:36.951Z,0.85
2022-08-05T20:56:09.160Z,3.88
2022-08-05T20:58:35.778Z,1.65
2022-08-05T21:01:04.175Z,2.80
2022-08-05T21:03:34.477Z,2.95
2022-08-05T21:06:01.613Z,1.08
2022-08-05T21:08:41.263Z,2.25
2022-08-05T21:11:11.679Z,2.78
2022-08-05T21:13:48.119Z,2.15
2022-08-05T21:16:29.978Z,1.88
2022-08-05T21:19:00.062Z,1.75
2022-08-05T21:21:27.464Z,2.45
2022-08-05T21:24:12.902Z,1.02
2022-08-05T21:26:39.875Z,2.50
2022-08-05T21:29:08.073Z,6.03
2022-08-05T21:31:41.106Z,2.00
2022-08-05T21:34:08.282Z,2.38
2022-08-05T21:36:36.871Z,3.83
2022-08-05T21:39:04.910Z,4.60
2022-08-05T21:41:34.188Z,1.17
2022-08-05T21:44:04.892Z,4.65
2022-08-05T21:46:40.686Z,2.05
2022-08-05T21:49:59.501Z,7.57
2022-08-05T21:52:22.650Z,2.40
2022-08-05T21:54:54.884Z,2.40
2022-08-05T21:57:31.246Z,1.25
2022-08-05T22:00:10.669Z,1.08
2022-08-05T22:02:38.049Z,3.22
2022-08-05T22:05:04.781Z,2.97
2022-08-05T22:07:40.125Z,1.00
2022-08-05T22:10:18.135Z,3.70
2022-08-05T22:12:53.159Z,3.50
2022-08-05T22:15:56.521Z,6.05
2022-08-05T22:18:06.314Z,0.98
2022-08-05T22:20:35.678Z,2.75
2022-08-05T22:23:24.419Z,2.50
2022-08-05T22:26:11.634Z,2.70
2022-08-05T22:28:41.285Z,0.80
2022-08-05T22:31:07.584Z,3.88
2022-08-05T22:33:56.753Z,1.42
2022-08-05T22:36:24.048Z,0.98
2022-08-05T22:38:50.859Z,7.90
2022-08-05T22:41:26.262Z,1.80
2022-08-05T22:44:06.818Z,2.08
2022-08-05T22:46:33.315Z,4.18
2022-08-05T22:48:59.607Z,7.30
2022-08-05T22:52:02.962Z,3.08
2022-08-05T22:54:12.789Z,2.92
2022-08-05T22:56:40.666Z,1.77
2022-08-05T22:59:43.940Z,1.50
2022-08-05T23:02:06.008Z,4.03
2022-08-05T23:04:33.462Z,4.35
2022-08-05T23:06:59.786Z,2.08
2022-08-05T23:09:52.641Z,0.93
2022-08-05T23:12:12.368Z,1.20
2022-08-05T23:14:38.677Z,1.67
2022-08-05T23:17:34.437Z,0.73
2022-08-05T23:20:04.835Z,7.53
2022-08-05T23:22:31.821Z,1.60
2022-08-05T23:24:59.744Z,2.60
2022-08-05T23:27:28.985Z,2.55
2022-08-05T23:30:10.653Z,1.38
2022-08-05T23:32:37.880Z,1.30
2022-08-05T23:35:11.546Z,1.00
2022-08-05T23:37:37.991Z,2.05
2022-08-05T23:40:09.362Z,1.20
2022-08-05T23:42:37.268Z,3.90
2022-08-05T23:45:13.848Z,3.55
2022-08-05T23:47:47.776Z,3.92
2022-08-05T23:50:14.660Z,1.27
2022-08-05T23:52:50.022Z,3.78
2022-08-05T23:55:17.845Z,2.58
2022-08-05T23:57:44.145Z,3.80
